PNT weather

Tte. Julio Gallardo Airport
Puerto Natales, Magallanes Region, Chile

Public forecast

Using degrees Celsius for public forecast. Weather courtesy of forecast.io.

Current aviation weather report (METAR) for Tte. Julio Gallardo Airport

Retrieved 2020/07/09 20:00 UTC (2 minutes ago):

SCNT 092000Z 00000KT 9999 VCSH SCT040 BKN100 00/M01 Q0993

Aviation forecast (TAF) for Tte. Julio Gallardo Airport

Forecast is more than 6 hours old.

Retrieved 2020/07/09 12:00 UTC (8 hours ago):

TAF SCNT 091058Z 0912/1000 29014KT 9000 -SHRASN -SHSN FEW012 SCT045 TNM04/1000Z TXM03/0916Z TEMPO 0912/0916 29020G30KT BECMG 0916/0918 29015KT